createdAt,value
2023-02-13T00:00:56.717Z,8.20
2023-02-13T00:03:24.375Z,8.00
2023-02-13T00:05:51.841Z,7.90
2023-02-13T00:08:19.133Z,8.70
2023-02-13T00:10:48.153Z,8.10
2023-02-13T00:13:15.697Z,7.90
2023-02-13T00:15:42.995Z,7.90
2023-02-13T00:20:38.611Z,7.70
2023-02-13T00:23:05.981Z,8.80
2023-02-13T00:25:33.369Z,8.40
2023-02-13T00:28:00.688Z,7.70
2023-02-13T00:30:28.132Z,8.10
2023-02-13T00:32:55.452Z,7.80
2023-02-13T00:35:24.652Z,7.90
2023-02-13T00:37:53.213Z,7.60
2023-02-13T00:40:25.132Z,7.70
2023-02-13T00:42:52.444Z,7.70
2023-02-13T00:45:19.680Z,7.70
2023-02-13T00:47:47.943Z,7.70
2023-02-13T00:50:15.324Z,7.80
2023-02-13T00:52:42.589Z,7.60
2023-02-13T00:55:09.867Z,7.60
2023-02-13T00:57:37.356Z,7.60
2023-02-13T01:00:05.987Z,7.70
2023-02-13T01:02:36.152Z,7.60
2023-02-13T01:05:04.219Z,7.70
2023-02-13T01:07:31.617Z,7.60
2023-02-13T01:09:58.865Z,7.50
2023-02-13T01:12:27.669Z,7.60
2023-02-13T01:14:56.041Z,7.50
2023-02-13T01:17:23.397Z,7.50
2023-02-13T01:19:51.855Z,7.60
2023-02-13T01:22:19.245Z,7.50
2023-02-13T01:24:49.247Z,7.50
2023-02-13T01:27:17.258Z,7.60
2023-02-13T01:29:45.566Z,7.60
2023-02-13T01:32:13.214Z,7.60
2023-02-13T01:34:40.828Z,7.60
2023-02-13T01:37:08.148Z,7.50
2023-02-13T01:39:35.505Z,7.50
2023-02-13T01:44:49.763Z,7.60
2023-02-13T01:47:41.231Z,7.70
2023-02-13T01:50:13.084Z,7.70
2023-02-13T01:52:44.519Z,7.60
2023-02-13T01:55:13.799Z,7.60
2023-02-13T01:57:43.925Z,7.60
2023-02-13T02:00:14.954Z,7.40
2023-02-13T02:02:58.084Z,7.50
2023-02-13T02:05:29.561Z,7.90
2023-02-13T02:07:58.921Z,7.60
2023-02-13T02:10:26.421Z,7.60
2023-02-13T02:13:15.938Z,7.50
2023-02-13T02:15:44.295Z,8.80
2023-02-13T02:18:20.938Z,7.60
2023-02-13T02:21:09.981Z,8.50
2023-02-13T02:24:14.970Z,7.50
2023-02-13T02:26:58.279Z,7.30
2023-02-13T02:29:44.218Z,7.60
2023-02-13T02:32:30.561Z,7.50
2023-02-13T02:35:19.850Z,7.60
2023-02-13T02:38:06.060Z,7.50
2023-02-13T02:40:45.077Z,7.60
2023-02-13T02:43:24.451Z,7.60
2023-02-13T02:46:01.322Z,7.60
2023-02-13T02:49:13.811Z,7.30
2023-02-13T02:51:50.107Z,7.50
2023-02-13T02:54:47.058Z,7.40
2023-02-13T02:57:22.818Z,7.90
2023-02-13T03:00:16.227Z,7.70
2023-02-13T03:03:02.000Z,7.30
2023-02-13T03:05:51.029Z,7.10
2023-02-13T03:08:41.384Z,7.10
2023-02-13T03:11:28.460Z,7.00
2023-02-13T03:13:57.301Z,7.10
2023-02-13T03:16:44.780Z,6.80
2023-02-13T03:19:48.362Z,7.50
2023-02-13T03:22:33.406Z,6.80
2023-02-13T03:25:00.704Z,6.90
2023-02-13T03:28:09.017Z,6.70
2023-02-13T03:31:00.007Z,6.40
2023-02-13T03:33:42.307Z,6.50
2023-02-13T03:36:38.235Z,6.40
2023-02-13T03:39:11.149Z,7.30
2023-02-13T03:41:43.387Z,6.30
2023-02-13T03:44:19.103Z,6.30
2023-02-13T03:46:50.167Z,6.20
2023-02-13T03:49:43.238Z,7.00
2023-02-13T03:52:43.978Z,6.30
2023-02-13T03:55:34.415Z,6.10
2023-02-13T03:58:47.395Z,6.00
2023-02-13T04:01:21.321Z,5.80
2023-02-13T04:04:01.656Z,5.90
2023-02-13T04:06:38.124Z,5.80
2023-02-13T04:11:54.287Z,5.60
2023-02-13T04:14:36.298Z,5.60
2023-02-13T04:17:08.826Z,5.60
2023-02-13T04:19:37.218Z,5.50
2023-02-13T04:22:04.586Z,5.70
2023-02-13T04:24:31.967Z,6.00
2023-02-13T04:26:59.700Z,5.40
2023-02-13T04:29:27.348Z,5.30
2023-02-13T04:31:54.666Z,5.20
2023-02-13T04:34:22.059Z,5.20
2023-02-13T04:36:49.486Z,5.20
2023-02-13T04:39:16.763Z,5.20
2023-02-13T04:41:45.189Z,5.00
2023-02-13T04:44:12.494Z,5.20
2023-02-13T04:46:42.391Z,5.20
2023-02-13T04:49:11.259Z,5.20
2023-02-13T04:51:39.138Z,5.20
2023-02-13T04:54:06.422Z,5.20
2023-02-13T04:56:33.804Z,4.90
2023-02-13T04:59:01.119Z,5.20
2023-02-13T05:01:28.580Z,5.20
2023-02-13T05:03:55.840Z,5.10
2023-02-13T05:06:23.219Z,5.20
2023-02-13T05:08:50.507Z,5.00
2023-02-13T05:11:17.748Z,5.10
2023-02-13T05:13:45.153Z,4.80
2023-02-13T05:16:12.595Z,4.90
2023-02-13T05:18:39.964Z,4.70
2023-02-13T05:23:53.867Z,4.80
2023-02-13T05:26:21.230Z,4.80
2023-02-13T05:29:07.124Z,4.80
2023-02-13T05:31:37.548Z,5.30
2023-02-13T05:34:04.891Z,4.50
2023-02-13T05:36:32.261Z,3.50
2023-02-13T05:38:59.904Z,4.90
2023-02-13T05:41:27.498Z,4.20
2023-02-13T05:43:54.882Z,5.20
2023-02-13T05:46:22.277Z,4.90
2023-02-13T05:48:49.662Z,4.70
2023-02-13T05:51:16.954Z,6.00
2023-02-13T05:53:44.293Z,5.00
2023-02-13T05:56:11.698Z,4.60
2023-02-13T05:58:39.012Z,5.00
2023-02-13T06:03:34.175Z,4.50
2023-02-13T06:06:01.680Z,4.90
2023-02-13T06:08:29.018Z,4.50
2023-02-13T06:10:56.300Z,4.50
2023-02-13T06:13:23.735Z,4.40
2023-02-13T06:15:51.219Z,4.30
2023-02-13T06:18:18.459Z,4.20
2023-02-13T06:20:45.946Z,4.40
2023-02-13T06:23:13.302Z,4.40
2023-02-13T06:25:41.272Z,4.10
2023-02-13T06:28:08.840Z,4.10
2023-02-13T06:30:36.244Z,4.10
2023-02-13T06:33:03.693Z,4.00
2023-02-13T06:35:32.133Z,4.10
2023-02-13T06:37:59.447Z,4.10
2023-02-13T06:40:26.723Z,4.00
2023-02-13T06:42:53.965Z,4.30
2023-02-13T06:45:21.278Z,4.00
2023-02-13T06:47:49.192Z,3.90
2023-02-13T06:50:18.044Z,3.90
2023-02-13T06:52:49.988Z,3.90
2023-02-13T06:55:18.070Z,3.70
2023-02-13T06:57:45.618Z,3.70
2023-02-13T07:00:15.304Z,3.70
2023-02-13T07:02:44.211Z,3.70
2023-02-13T07:05:12.016Z,4.70
2023-02-13T07:07:40.770Z,3.90
2023-02-13T07:10:12.941Z,3.60
2023-02-13T07:12:40.382Z,3.60
2023-02-13T07:15:08.229Z,3.50
2023-02-13T07:17:36.049Z,3.50
2023-02-13T07:20:04.668Z,3.50
2023-02-13T07:22:33.090Z,3.50
2023-02-13T07:25:01.252Z,3.50
2023-02-13T07:27:29.418Z,3.40
2023-02-13T07:29:57.806Z,3.00
2023-02-13T07:32:25.933Z,3.70
2023-02-13T07:35:01.751Z,3.60
2023-02-13T07:37:31.054Z,4.00
2023-02-13T07:39:58.379Z,3.40
2023-02-13T07:42:25.676Z,3.30
2023-02-13T07:44:53.060Z,3.60
2023-02-13T07:47:20.535Z,3.40
2023-02-13T07:49:47.843Z,3.70
2023-02-13T07:52:15.153Z,3.50
2023-02-13T07:54:47.438Z,3.70
2023-02-13T07:57:15.889Z,3.50
2023-02-13T07:59:43.575Z,3.90
2023-02-13T08:02:15.905Z,3.60
2023-02-13T08:04:46.556Z,3.60
2023-02-13T08:07:15.248Z,3.60
2023-02-13T08:10:04.080Z,3.50
2023-02-13T08:12:34.354Z,3.60
2023-02-13T08:15:01.878Z,3.80
2023-02-13T08:17:29.153Z,3.80
2023-02-13T08:19:56.478Z,3.90
2023-02-13T08:22:24.146Z,3.90
2023-02-13T08:24:51.649Z,3.90
2023-02-13T08:27:19.027Z,3.90
2023-02-13T08:29:46.367Z,3.90
2023-02-13T08:32:13.760Z,4.10
2023-02-13T08:34:41.078Z,4.00
2023-02-13T08:37:08.575Z,4.10
2023-02-13T08:39:35.867Z,4.20
2023-02-13T08:42:04.124Z,4.30
2023-02-13T08:44:31.934Z,4.20
2023-02-13T08:47:02.178Z,4.30
2023-02-13T08:49:32.659Z,4.40
2023-02-13T08:52:01.103Z,4.80
2023-02-13T08:54:28.341Z,4.50
2023-02-13T08:56:57.192Z,4.50
2023-02-13T08:59:25.112Z,4.60
2023-02-13T09:01:52.555Z,5.00
2023-02-13T09:04:19.899Z,4.90
2023-02-13T09:06:47.116Z,4.80
2023-02-13T09:09:14.437Z,4.60
2023-02-13T09:11:41.752Z,4.90
2023-02-13T09:14:09.032Z,5.00
2023-02-13T09:16:36.395Z,5.10
2023-02-13T09:19:04.347Z,5.10
2023-02-13T09:21:31.626Z,5.20
2023-02-13T09:23:58.961Z,5.30
2023-02-13T09:26:26.240Z,5.60
2023-02-13T09:28:53.902Z,6.30
2023-02-13T09:31:21.990Z,5.50
2023-02-13T09:33:50.367Z,5.90
2023-02-13T09:36:20.799Z,5.70
2023-02-13T09:38:52.222Z,5.80
2023-02-13T09:41:23.659Z,6.20
2023-02-13T09:44:34.238Z,6.00
2023-02-13T09:47:21.404Z,6.20
2023-02-13T09:49:53.897Z,6.30
2023-02-13T09:52:21.448Z,6.50
2023-02-13T09:57:35.715Z,6.70
2023-02-13T10:00:13.214Z,7.00
2023-02-13T10:02:46.240Z,7.00
2023-02-13T10:05:19.461Z,7.10
2023-02-13T10:08:04.746Z,7.50
2023-02-13T10:10:59.505Z,7.30
2023-02-13T10:13:54.430Z,7.40
2023-02-13T10:16:30.383Z,7.50
2023-02-13T10:19:15.548Z,7.60
2023-02-13T10:21:55.937Z,7.80
2023-02-13T10:24:41.600Z,8.10
2023-02-13T10:27:22.610Z,8.30
2023-02-13T10:30:09.575Z,8.10
2023-02-13T10:33:21.519Z,9.10
2023-02-13T10:36:02.837Z,8.40
2023-02-13T10:38:33.385Z,8.60
2023-02-13T10:41:19.115Z,9.00
2023-02-13T10:44:07.306Z,8.60
2023-02-13T10:46:51.619Z,8.80
2023-02-13T10:49:41.038Z,8.90
2023-02-13T10:52:32.288Z,9.10
2023-02-13T10:55:39.049Z,9.10
2023-02-13T10:58:33.571Z,9.20
2023-02-13T11:01:15.489Z,9.40
2023-02-13T11:03:42.996Z,9.40
2023-02-13T11:06:15.925Z,9.60
2023-02-13T11:08:46.459Z,9.70
2023-02-13T11:11:35.380Z,10.00
2023-02-13T11:14:19.226Z,9.90
2023-02-13T11:16:57.930Z,9.90
2023-02-13T11:19:51.625Z,10.00
2023-02-13T11:22:35.167Z,10.00
2023-02-13T11:25:07.063Z,10.10
2023-02-13T11:27:38.079Z,10.20
2023-02-13T11:30:35.249Z,10.30
2023-02-13T11:33:17.889Z,10.70
2023-02-13T11:35:48.626Z,11.20
2023-02-13T11:38:19.340Z,12.10
2023-02-13T11:41:08.479Z,12.00
2023-02-13T11:44:06.917Z,12.50
2023-02-13T11:46:46.253Z,12.80
2023-02-13T11:49:37.020Z,13.60
2023-02-13T11:52:22.831Z,13.70
2023-02-13T11:54:58.456Z,13.70
2023-02-13T11:57:34.755Z,13.80
2023-02-13T12:00:31.173Z,14.40
2023-02-13T12:02:58.799Z,14.40
2023-02-13T12:05:28.616Z,14.70
2023-02-13T12:08:01.681Z,14.90
2023-02-13T12:10:32.427Z,15.20
2023-02-13T12:13:21.960Z,15.50
2023-02-13T12:15:59.265Z,15.70
2023-02-13T12:18:44.152Z,16.00
2023-02-13T12:21:17.411Z,16.20
2023-02-13T12:23:59.863Z,16.10
2023-02-13T12:26:32.120Z,16.00
2023-02-13T12:29:15.255Z,16.20
2023-02-13T12:31:51.498Z,16.50
2023-02-13T12:34:50.188Z,16.80
2023-02-13T12:37:38.666Z,17.00
2023-02-13T12:40:24.756Z,17.20
2023-02-13T12:43:37.195Z,17.30
2023-02-13T12:46:08.265Z,17.40
2023-02-13T12:49:01.300Z,17.40
2023-02-13T12:51:37.603Z,17.30
2023-02-13T12:54:16.713Z,17.50
2023-02-13T12:57:07.086Z,18.00
2023-02-13T13:00:06.971Z,17.90
2023-02-13T13:02:48.323Z,18.00
2023-02-13T13:05:24.680Z,18.10
2023-02-13T13:08:18.377Z,18.40
2023-02-13T13:11:23.299Z,18.60
2023-02-13T13:14:19.701Z,18.70
2023-02-13T13:17:04.238Z,18.80
2023-02-13T13:19:49.338Z,18.80
2023-02-13T13:22:46.497Z,19.20
2023-02-13T13:25:42.492Z,19.40
2023-02-13T13:28:40.537Z,19.50
2023-02-13T13:31:08.978Z,19.50
2023-02-13T13:33:39.383Z,19.40
2023-02-13T13:36:33.902Z,19.50
2023-02-13T13:39:34.533Z,19.70
2023-02-13T13:42:40.543Z,19.80
2023-02-13T13:45:25.566Z,19.90
2023-02-13T13:48:11.516Z,20.10
2023-02-13T13:50:41.788Z,19.60
2023-02-13T13:53:21.025Z,19.80
2023-02-13T13:55:48.554Z,19.90
2023-02-13T13:58:36.042Z,19.90
2023-02-13T14:01:15.500Z,20.00
2023-02-13T14:03:51.891Z,20.20
2023-02-13T14:06:25.332Z,20.30
2023-02-13T14:09:06.095Z,20.50
2023-02-13T14:11:46.968Z,20.70
2023-02-13T14:14:30.539Z,20.70
2023-02-13T14:16:59.805Z,20.80
2023-02-13T14:19:39.566Z,20.80
2023-02-13T14:22:19.123Z,20.80
2023-02-13T14:24:58.293Z,20.70
2023-02-13T14:27:34.166Z,20.90
2023-02-13T14:30:02.099Z,21.10
2023-02-13T14:32:33.588Z,21.10
2023-02-13T14:35:04.828Z,21.20
2023-02-13T14:37:39.658Z,21.20
2023-02-13T14:40:11.630Z,21.60
2023-02-13T14:42:40.293Z,21.40
2023-02-13T14:45:18.636Z,21.60
2023-02-13T14:47:53.380Z,21.50
2023-02-13T14:50:53.281Z,21.60
2023-02-13T14:53:28.382Z,21.60
2023-02-13T14:56:13.892Z,21.60
2023-02-13T14:58:54.647Z,21.60
2023-02-13T15:01:34.440Z,21.70
2023-02-13T15:04:15.647Z,21.60
2023-02-13T15:06:45.470Z,21.40
2023-02-13T15:09:22.241Z,21.60
2023-02-13T15:11:49.717Z,21.60
2023-02-13T15:14:19.317Z,21.60
2023-02-13T15:16:52.390Z,21.40
2023-02-13T15:19:21.489Z,20.90
2023-02-13T15:21:55.273Z,20.70
2023-02-13T15:24:23.561Z,20.70
2023-02-13T15:27:06.401Z,20.90
2023-02-13T15:29:47.946Z,21.10
2023-02-13T15:32:26.213Z,21.20
2023-02-13T15:34:53.621Z,21.50
2023-02-13T15:37:27.250Z,21.50
2023-02-13T15:39:54.816Z,21.50
2023-02-13T15:42:22.383Z,21.50
2023-02-13T15:44:54.201Z,21.50
2023-02-13T15:47:30.501Z,22.00
2023-02-13T15:49:58.336Z,21.60
2023-02-13T15:52:37.156Z,21.70
2023-02-13T15:55:04.903Z,21.70
2023-02-13T15:57:33.146Z,21.60
2023-02-13T16:00:01.508Z,21.50
2023-02-13T16:02:43.825Z,21.40
2023-02-13T16:05:13.966Z,21.20
2023-02-13T16:07:57.451Z,21.20
2023-02-13T16:10:36.486Z,21.10
2023-02-13T16:13:06.747Z,21.00
2023-02-13T16:15:37.558Z,20.50
2023-02-13T16:18:06.300Z,20.70
2023-02-13T16:20:35.215Z,20.60
2023-02-13T16:23:16.728Z,20.10
2023-02-13T16:25:45.910Z,20.40
2023-02-13T16:28:31.887Z,19.90
2023-02-13T16:31:04.155Z,19.40
2023-02-13T16:33:38.032Z,19.80
2023-02-13T16:36:11.498Z,19.70
2023-02-13T16:38:44.124Z,19.40
2023-02-13T16:41:17.161Z,19.20
2023-02-13T16:43:52.096Z,18.90
2023-02-13T16:46:26.243Z,18.60
2023-02-13T16:48:56.382Z,18.30
2023-02-13T16:51:29.586Z,17.90
2023-02-13T16:53:58.583Z,17.50
2023-02-13T16:56:26.087Z,17.10
2023-02-13T16:59:21.168Z,16.60
2023-02-13T17:02:04.316Z,15.40
2023-02-13T17:04:41.299Z,15.50
2023-02-13T17:07:13.834Z,15.00
2023-02-13T17:09:43.770Z,14.50
2023-02-13T17:12:24.719Z,14.20
2023-02-13T17:14:53.058Z,13.70
2023-02-13T17:17:24.200Z,13.50
2023-02-13T17:20:05.607Z,12.70
2023-02-13T17:22:52.492Z,13.00
2023-02-13T17:25:25.404Z,12.80
2023-02-13T17:28:01.552Z,12.00
2023-02-13T17:30:33.687Z,12.30
2023-02-13T17:33:05.860Z,12.10
2023-02-13T17:35:35.481Z,11.90
2023-02-13T17:38:03.775Z,11.80
2023-02-13T17:40:31.925Z,11.70
2023-02-13T17:43:00.082Z,11.60
2023-02-13T17:45:32.663Z,11.70
2023-02-13T17:50:29.745Z,11.30
2023-02-13T17:52:58.428Z,11.10
2023-02-13T17:55:28.538Z,11.20
2023-02-13T17:57:57.830Z,11.10
2023-02-13T18:00:28.166Z,10.70
2023-02-13T18:05:23.634Z,10.90
2023-02-13T18:07:51.250Z,10.80
2023-02-13T18:10:21.431Z,10.70
2023-02-13T18:12:50.106Z,10.60
2023-02-13T18:15:17.868Z,10.60
2023-02-13T18:17:45.547Z,10.50
2023-02-13T18:20:15.360Z,10.80
2023-02-13T18:22:43.227Z,10.30
2023-02-13T18:25:11.181Z,10.30
2023-02-13T18:30:06.985Z,10.20
2023-02-13T18:32:34.454Z,10.10
2023-02-13T18:35:02.647Z,10.10
2023-02-13T18:37:30.096Z,10.00
2023-02-13T18:42:26.004Z,10.00
2023-02-13T18:44:53.379Z,10.00
2023-02-13T18:47:20.748Z,10.00
2023-02-13T18:49:48.012Z,9.70
2023-02-13T18:52:15.552Z,10.00
2023-02-13T18:54:42.851Z,9.60
2023-02-13T18:59:37.985Z,9.50
2023-02-13T19:02:05.297Z,10.50
2023-02-13T19:04:35.081Z,9.70
2023-02-13T19:07:02.377Z,10.20
2023-02-13T19:09:29.725Z,9.30
2023-02-13T19:11:57.138Z,9.90
2023-02-13T19:14:25.859Z,9.10
2023-02-13T19:16:55.152Z,9.10
2023-02-13T19:19:22.733Z,8.80
2023-02-13T19:21:50.064Z,9.00
2023-02-13T19:24:18.597Z,9.70
2023-02-13T19:26:46.013Z,9.00
2023-02-13T19:29:16.011Z,8.80
2023-02-13T19:31:43.674Z,9.10
2023-02-13T19:34:11.329Z,8.90
2023-02-13T19:36:38.860Z,8.70
2023-02-13T19:41:36.231Z,8.60
2023-02-13T19:44:05.276Z,8.60
2023-02-13T19:49:00.743Z,8.70
2023-02-13T19:51:30.819Z,8.40
2023-02-13T19:54:01.179Z,8.30
2023-02-13T19:56:29.324Z,8.20
2023-02-13T19:58:57.048Z,8.30
2023-02-13T20:01:26.866Z,8.40
2023-02-13T20:03:54.700Z,8.10
2023-02-13T20:06:29.969Z,8.00
2023-02-13T20:08:59.845Z,7.90
2023-02-13T20:11:27.333Z,8.10
2023-02-13T20:13:56.415Z,7.90
2023-02-13T20:16:24.104Z,8.10
2023-02-13T20:18:51.707Z,8.10
2023-02-13T20:21:21.082Z,7.90
2023-02-13T20:23:50.505Z,9.90
2023-02-13T20:26:18.556Z,8.10
2023-02-13T20:28:46.800Z,8.00
2023-02-13T20:31:21.031Z,8.10
2023-02-13T20:33:52.412Z,8.10
2023-02-13T20:36:22.296Z,8.90
2023-02-13T20:38:52.328Z,8.70
2023-02-13T20:41:22.144Z,7.90
2023-02-13T20:43:49.483Z,8.00
2023-02-13T20:46:16.829Z,7.80
2023-02-13T20:48:46.838Z,7.80
2023-02-13T20:51:15.858Z,8.70
2023-02-13T20:53:44.240Z,7.90
2023-02-13T20:56:25.370Z,7.60
2023-02-13T20:58:55.358Z,8.70
2023-02-13T21:01:28.422Z,7.70
2023-02-13T21:03:56.460Z,7.40
2023-02-13T21:06:28.859Z,7.50
2023-02-13T21:08:56.621Z,7.60
2023-02-13T21:11:24.334Z,7.40
2023-02-13T21:13:52.134Z,7.10
2023-02-13T21:16:25.849Z,7.30
2023-02-13T21:18:55.842Z,7.10
2023-02-13T21:21:25.341Z,7.30
2023-02-13T21:23:54.349Z,7.20
2023-02-13T21:26:21.778Z,7.20
2023-02-13T21:28:50.229Z,7.20
2023-02-13T21:31:30.483Z,7.30
2023-02-13T21:34:04.218Z,7.10
2023-02-13T21:36:32.907Z,7.20
2023-02-13T21:39:00.354Z,7.00
2023-02-13T21:41:27.931Z,6.90
2023-02-13T21:43:55.310Z,6.90
2023-02-13T21:46:25.623Z,7.20
2023-02-13T21:48:58.282Z,6.80
2023-02-13T21:51:27.387Z,6.90
2023-02-13T21:53:54.771Z,7.00
2023-02-13T21:56:28.083Z,6.70
2023-02-13T21:58:56.308Z,6.70
2023-02-13T22:01:35.113Z,6.60
2023-02-13T22:04:06.102Z,6.60
2023-02-13T22:06:35.618Z,6.50
2023-02-13T22:09:14.120Z,6.60
2023-02-13T22:11:42.384Z,6.30
2023-02-13T22:14:17.326Z,6.70
2023-02-13T22:16:45.877Z,6.70
2023-02-13T22:19:15.822Z,7.00
2023-02-13T22:21:43.965Z,6.70
2023-02-13T22:24:11.848Z,7.20
2023-02-13T22:26:42.485Z,6.60
2023-02-13T22:29:12.167Z,6.50
2023-02-13T22:31:40.142Z,6.30
2023-02-13T22:34:07.772Z,6.40
2023-02-13T22:36:40.277Z,7.40
2023-02-13T22:39:09.671Z,6.20
2023-02-13T22:41:37.450Z,6.50
2023-02-13T22:44:04.972Z,6.20
2023-02-13T22:46:33.744Z,6.40
2023-02-13T22:49:01.752Z,6.40
2023-02-13T22:51:32.247Z,6.40
2023-02-13T22:54:00.050Z,6.50
2023-02-13T22:56:29.198Z,6.20
2023-02-13T22:58:56.720Z,10.10
2023-02-13T23:01:26.547Z,6.90
2023-02-13T23:03:54.788Z,6.40
2023-02-13T23:06:22.639Z,6.50
2023-02-13T23:08:52.978Z,6.10
2023-02-13T23:11:41.725Z,6.30
2023-02-13T23:14:10.085Z,6.10
2023-02-13T23:16:59.768Z,7.10
2023-02-13T23:19:29.699Z,6.10
2023-02-13T23:21:57.524Z,6.20
2023-02-13T23:24:24.911Z,6.10
2023-02-13T23:26:52.319Z,6.20
2023-02-13T23:29:19.743Z,6.20
2023-02-13T23:31:47.353Z,6.20
2023-02-13T23:34:14.930Z,7.00
2023-02-13T23:36:42.235Z,6.20
2023-02-13T23:39:09.615Z,6.20
2023-02-13T23:41:36.925Z,6.10
2023-02-13T23:44:04.373Z,6.00
2023-02-13T23:46:32.011Z,5.90
2023-02-13T23:48:59.349Z,5.80
2023-02-13T23:51:26.723Z,5.70
2023-02-13T23:53:56.271Z,5.90
2023-02-13T23:56:25.279Z,6.60
2023-02-13T23:58:52.950Z,5.50
